Time;durP1;ratioP1;P1;durP2;ratioP2;P2;SDS_P1;SDS_P2;PMS_P1;PMS_P2;Temp;Humidity;BMP_temperature;BMP_pressure;BME280_temperature;BME280_humidity;BME280_pressure;Samples;Min_cycle;Max_cycle;Signal;HPM_P1;HPM_P2
2023/07/07 00:01:50;;;;;;;1.20;0.93;;;;;;;17.91;90.01;101322.75;5000048;28;20030;-65
2023/07/07 00:04:16;;;;;;;1.67;1.02;;;;;;;17.73;89.57;101321.19;4996174;28;20033;-65
2023/07/07 00:06:41;;;;;;;1.33;1.00;;;;;;;17.66;90.69;101321.16;4990649;28;20500;-65
2023/07/07 00:09:07;;;;;;;0.93;0.80;;;;;;;17.64;90.64;101318.03;4993685;28;20130;-65
2023/07/07 00:11:32;;;;;;;2.42;1.17;;;;;;;17.66;90.83;101323.88;5004194;28;20029;-65
2023/07/07 00:13:58;;;;;;;2.22;0.85;;;;;;;17.57;90.89;101316.09;4989534;28;20030;-65
2023/07/07 00:16:27;;;;;;;1.48;1.17;;;;;;;17.57;91.28;101318.03;4987574;28;20530;-64
2023/07/07 00:18:57;;;;;;;1.55;1.02;;;;;;;17.51;91.22;101316.84;4989155;28;20039;-65
2023/07/07 00:21:24;;;;;;;1.15;1.00;;;;;;;17.38;91.48;101321.81;5000838;28;20096;-62
2023/07/07 00:23:55;;;;;;;2.17;1.33;;;;;;;17.42;91.94;101319.13;4990400;28;20045;-65
2023/07/07 00:26:21;;;;;;;3.50;1.73;;;;;;;17.52;90.50;101327.34;4964845;28;20049;-67
2023/07/07 00:28:47;;;;;;;2.17;1.00;;;;;;;17.44;91.12;101322.25;4995497;28;20022;-64
2023/07/07 00:31:12;;;;;;;2.63;1.40;;;;;;;17.48;90.61;101323.03;4981930;28;20125;-64
2023/07/07 00:33:38;;;;;;;2.03;1.40;;;;;;;17.50;91.03;101326.94;4985125;28;20030;-68
2023/07/07 00:36:04;;;;;;;1.45;1.10;;;;;;;17.45;91.07;101324.56;4974855;28;20037;-64
2023/07/07 00:38:30;;;;;;;2.65;0.98;;;;;;;17.35;91.64;101322.59;4999131;28;20045;-64
2023/07/07 00:40:59;;;;;;;1.75;1.30;;;;;;;17.20;91.72;101320.97;5001098;28;20034;-68
2023/07/07 00:43:28;;;;;;;1.00;0.85;;;;;;;17.32;91.88;101323.38;4998330;28;20096;-69
2023/07/07 00:45:55;;;;;;;1.08;0.98;;;;;;;17.29;91.16;101315.94;4997886;28;20045;-69
2023/07/07 00:48:24;;;;;;;1.23;1.13;;;;;;;17.31;90.99;101319.06;4986946;28;20057;-67
2023/07/07 00:50:58;;;;;;;1.50;1.23;;;;;;;17.35;90.69;101322.59;4997083;28;20038;-67
2023/07/07 00:53:24;;;;;;;1.00;0.90;;;;;;;17.41;90.74;101318.34;4978504;28;20173;-65
2023/07/07 00:55:56;;;;;;;1.10;1.00;;;;;;;17.21;90.83;101321.78;4994472;28;20133;-67
2023/07/07 00:58:24;;;;;;;1.45;0.98;;;;;;;17.25;90.59;101334.22;4992075;28;20065;-65
2023/07/07 01:01:12;;;;;;;1.42;1.13;;;;;;;17.14;91.35;101330.69;4976697;28;20173;-65
2023/07/07 01:03:47;;;;;;;1.40;1.17;;;;;;;17.27;91.38;101340.06;4993874;28;20038;-66
2023/07/07 01:06:17;;;;;;;1.98;1.20;;;;;;;17.25;90.32;101334.22;4991613;28;20034;-67
2023/07/07 01:08:47;;;;;;;1.33;1.02;;;;;;;17.27;90.64;101336.56;4981282;28;20134;-65
2023/07/07 01:11:12;;;;;;;1.13;0.95;;;;;;;17.12;90.49;101331.06;4991706;28;20101;-65
2023/07/07 01:13:38;;;;;;;1.15;1.02;;;;;;;17.22;90.81;101335.00;4975764;28;20121;-66
2023/07/07 01:16:19;;;;;;;1.00;0.70;;;;;;;17.25;89.82;101333.47;4992008;28;20142;-63
2023/07/07 01:18:48;;;;;;;1.65;1.00;;;;;;;17.26;89.70;101324.13;4976342;28;20225;-65
2023/07/07 01:21:36;;;;;;;1.92;1.08;;;;;;;17.25;90.17;101328.00;4992079;28;20503;-65
2023/07/07 01:24:26;;;;;;;1.17;0.98;;;;;;;17.14;90.51;101334.19;4966486;28;20482;-65
2023/07/07 01:27:15;;;;;;;1.40;0.93;;;;;;;17.15;90.11;101334.94;4989421;28;20033;-64
2023/07/07 01:30:02;;;;;;;1.23;1.00;;;;;;;17.01;90.06;101332.19;4994408;28;20495;-66
2023/07/07 01:32:29;;;;;;;1.30;0.95;;;;;;;16.97;89.96;101334.88;4968534;28;20426;-65
2023/07/07 01:35:03;;;;;;;0.80;0.80;;;;;;;16.83;90.57;101325.84;4995326;28;20554;-65
2023/07/07 01:37:29;;;;;;;1.23;1.00;;;;;;;16.80;90.90;101337.50;4991213;28;20030;-66
2023/07/07 01:39:55;;;;;;;1.00;0.93;;;;;;;16.75;90.87;101332.41;4987880;28;20045;-63
2023/07/07 01:42:35;;;;;;;0.98;0.75;;;;;;;16.81;90.63;101336.34;4987582;28;20092;-66
2023/07/07 01:45:30;;;;;;;1.80;1.20;;;;;;;16.92;90.77;101331.72;4962719;28;20031;-62
2023/07/07 01:48:22;;;;;;;1.30;1.08;;;;;;;16.79;90.42;101335.94;4988260;28;20046;-64
2023/07/07 01:50:49;;;;;;;1.27;0.80;;;;;;;16.68;90.31;101340.53;4997636;28;20042;-65
2023/07/07 01:53:20;;;;;;;1.10;0.82;;;;;;;16.80;90.62;101332.81;4977970;28;20571;-64
2023/07/07 01:55:54;;;;;;;1.92;1.02;;;;;;;16.81;90.11;101336.34;4975561;28;20093;-65
2023/07/07 01:58:21;;;;;;;2.92;1.40;;;;;;;16.89;89.94;101333.28;4972942;28;20028;-64
2023/07/07 02:01:08;;;;;;;0.75;0.75;;;;;;;16.85;90.26;101337.13;4972906;28;20125;-64
2023/07/07 02:03:34;;;;;;;1.08;0.88;;;;;;;16.79;89.61;101327.75;4907592;29;20465;-64
2023/07/07 02:05:59;;;;;;;1.15;0.98;;;;;;;16.73;89.88;101335.50;4900969;29;20050;-62
2023/07/07 02:08:25;;;;;;;1.25;1.00;;;;;;;16.74;90.06;101333.56;4898960;29;20052;-63
2023/07/07 02:10:50;;;;;;;1.02;0.93;;;;;;;16.84;89.65;101339.06;4897171;29;20071;-64
2023/07/07 02:13:16;;;;;;;2.10;1.05;;;;;;;16.85;89.45;101324.31;4913028;29;20040;-65
2023/07/07 02:15:41;;;;;;;1.10;1.00;;;;;;;16.82;88.75;101333.22;4911596;29;20096;-64
2023/07/07 02:18:07;;;;;;;1.20;0.95;;;;;;;16.75;89.29;101335.13;4896087;29;20039;-64
2023/07/07 02:20:32;;;;;;;1.60;0.90;;;;;;;16.68;89.68;101332.38;4897484;29;20032;-63
2023/07/07 02:22:58;;;;;;;2.05;0.90;;;;;;;16.67;90.25;101336.22;4902709;29;20103;-63
2023/07/07 02:25:43;;;;;;;1.10;1.00;;;;;;;16.76;89.63;101340.19;4897105;29;20043;-64
2023/07/07 02:28:09;;;;;;;2.03;0.95;;;;;;;16.80;89.82;101335.53;4885066;29;20125;-64
2023/07/07 02:30:35;;;;;;;0.90;0.90;;;;;;;16.81;89.45;101330.88;4893405;29;20088;-65
2023/07/07 02:33:00;;;;;;;3.75;1.38;;;;;;;16.97;88.03;101337.59;4893837;29;20506;-64
2023/07/07 02:35:26;;;;;;;1.25;1.05;;;;;;;16.91;88.13;101335.63;4892475;29;20044;-64
2023/07/07 02:37:52;;;;;;;1.10;0.95;;;;;;;16.96;88.60;101335.25;4897999;29;20056;-64
2023/07/07 02:40:18;;;;;;;0.90;0.85;;;;;;;16.69;88.78;101340.16;4901820;29;20071;-63
2023/07/07 02:42:46;;;;;;;1.38;0.93;;;;;;;16.70;89.52;101332.78;4922199;29;20438;-64
2023/07/07 02:45:11;;;;;;;1.33;0.98;;;;;;;16.96;87.55;101332.53;4911177;29;20438;-66
2023/07/07 02:47:36;;;;;;;1.00;0.90;;;;;;;16.84;88.48;101330.91;4988085;23;20049;-66
2023/07/07 02:50:02;;;;;;;1.00;0.90;;;;;;;16.83;88.28;101328.56;4977122;28;20405;-66
2023/07/07 02:52:28;;;;;;;1.73;1.30;;;;;;;16.67;88.90;101328.84;4996199;28;20038;-66
2023/07/07 02:54:54;;;;;;;1.25;0.95;;;;;;;16.66;89.48;101337.41;4986305;28;20041;-66
2023/07/07 02:57:20;;;;;;;5.88;1.77;;;;;;;16.69;89.51;101336.63;4966067;28;20027;-66
2023/07/07 02:59:45;;;;;;;1.10;0.80;;;;;;;16.74;89.41;101339.00;4970803;28;20411;-66
2023/07/07 03:02:31;;;;;;;1.38;1.02;;;;;;;16.73;89.04;101338.22;4953512;28;20029;-67
2023/07/07 03:04:56;;;;;;;1.38;1.23;;;;;;;16.68;89.06;101335.09;4892244;29;20128;-67
2023/07/07 03:07:22;;;;;;;0.82;0.80;;;;;;;16.78;88.61;101340.59;4872621;29;20113;-67
2023/07/07 03:09:48;;;;;;;1.85;1.00;;;;;;;16.69;88.42;101342.06;4895908;29;20462;-66
2023/07/07 03:12:15;;;;;;;1.20;1.10;;;;;;;16.69;88.84;101339.34;4877468;29;20045;-67
2023/07/07 03:14:40;;;;;;;0.82;0.68;;;;;;;16.58;89.01;101354.84;4891215;29;20693;-67
2023/07/07 03:17:08;;;;;;;6.63;1.00;;;;;;;16.53;89.87;101355.19;4876063;29;20044;-66
2023/07/07 03:19:42;;;;;;;1.63;0.98;;;;;;;16.55;90.27;101348.19;4877126;29;20448;-66
2023/07/07 03:22:12;;;;;;;1.45;0.88;;;;;;;16.61;89.55;101362.22;4889387;29;20568;-67
2023/07/07 03:24:43;;;;;;;1.20;0.82;;;;;;;16.50;89.77;101356.72;4885404;29;20041;-67
2023/07/07 03:27:20;;;;;;;1.15;0.95;;;;;;;16.53;90.30;101358.66;4887953;29;20413;-66
2023/07/07 03:29:45;;;;;;;1.48;0.85;;;;;;;16.44;90.12;101351.97;4894276;29;20056;-67
2023/07/07 03:32:13;;;;;;;1.60;0.95;;;;;;;16.44;90.61;101355.47;4877639;29;20033;-67
2023/07/07 03:34:41;;;;;;;2.33;1.00;;;;;;;16.39;90.61;101355.84;4874179;29;20136;-67
2023/07/07 03:37:09;;;;;;;1.13;1.05;;;;;;;16.35;90.91;101363.19;4892536;29;20033;-67
2023/07/07 03:39:35;;;;;;;4.57;1.27;;;;;;;16.33;90.90;101370.94;4891917;29;20501;-66
2023/07/07 03:42:01;;;;;;;1.58;0.95;;;;;;;16.34;90.70;101371.72;4915714;28;20037;-66
2023/07/07 03:44:27;;;;;;;1.08;0.88;;;;;;;16.38;91.11;101361.63;4953183;28;20062;-67
2023/07/07 03:46:53;;;;;;;1.00;0.85;;;;;;;16.42;90.56;101365.16;4965905;28;20564;-67
2023/07/07 03:49:19;;;;;;;0.88;0.88;;;;;;;16.46;90.20;101364.03;4956890;28;20035;-66
2023/07/07 03:51:44;;;;;;;1.13;0.95;;;;;;;16.41;90.85;101377.19;4972725;28;20041;-67
2023/07/07 03:54:11;;;;;;;1.35;1.20;;;;;;;16.44;91.25;101371.00;4958432;28;20038;-67
2023/07/07 03:56:37;;;;;;;2.55;0.90;;;;;;;16.55;90.90;101367.25;4963479;28;20039;-67
2023/07/07 03:59:03;;;;;;;1.45;1.00;;;;;;;16.65;90.37;101382.84;4953927;28;20570;-67
2023/07/07 04:01:29;;;;;;;0.88;0.77;;;;;;;16.57;90.54;101378.53;4944408;28;20134;-68
2023/07/07 04:03:55;;;;;;;1.02;0.80;;;;;;;16.55;90.24;101377.34;4967033;28;20110;-66
2023/07/07 04:06:20;;;;;;;1.00;0.90;;;;;;;16.60;90.41;101385.16;4970835;28;20066;-67
2023/07/07 04:08:47;;;;;;;1.38;0.65;;;;;;;16.71;90.66;101383.28;4977452;28;20038;-66
2023/07/07 04:11:15;;;;;;;4.25;1.13;;;;;;;16.68;90.59;101379.41;4967578;28;20065;-67
2023/07/07 04:13:43;;;;;;;2.10;1.20;;;;;;;16.76;90.41;101377.50;4953937;28;20122;-66
2023/07/07 04:16:10;;;;;;;1.05;0.93;;;;;;;16.61;91.08;101383.97;4985146;28;20046;-67
2023/07/07 04:18:39;;;;;;;1.08;0.90;;;;;;;16.60;91.95;101390.59;4961297;28;20031;-66
2023/07/07 04:21:07;;;;;;;0.95;0.73;;;;;;;16.68;91.45;101381.34;4961461;28;20832;-67
2023/07/07 04:23:38;;;;;;;1.20;0.82;;;;;;;16.81;90.69;101386.09;4944506;28;20118;-66
2023/07/07 04:26:05;;;;;;;1.05;0.95;;;;;;;16.67;91.32;101385.19;4950433;28;20422;-65
2023/07/07 04:28:32;;;;;;;1.23;0.95;;;;;;;16.77;91.68;101393.44;4969872;28;20042;-67
2023/07/07 04:30:58;;;;;;;1.52;1.15;;;;;;;16.87;91.45;101386.50;4974170;28;20038;-67
2023/07/07 04:33:27;;;;;;;0.88;0.80;;;;;;;16.89;91.49;101387.69;4957426;28;20038;-67
2023/07/07 04:35:54;;;;;;;1.33;1.10;;;;;;;17.01;91.01;101387.38;4977364;28;20037;-66
2023/07/07 04:38:23;;;;;;;1.45;1.10;;;;;;;16.96;90.92;101398.63;4958978;28;20034;-66
2023/07/07 04:40:49;;;;;;;1.45;0.95;;;;;;;17.01;90.93;101400.97;4965497;28;20114;-66
2023/07/07 04:43:14;;;;;;;1.70;1.08;;;;;;;17.09;90.87;101399.09;4980137;28;20117;-66
2023/07/07 04:45:40;;;;;;;2.58;1.10;;;;;;;17.23;90.40;101398.41;4984960;28;20118;-68
2023/07/07 04:48:05;;;;;;;1.67;0.90;;;;;;;17.32;90.49;101402.34;4977328;28;20117;-67
2023/07/07 04:50:34;;;;;;;1.63;1.05;;;;;;;17.33;89.65;101405.81;4944157;28;20406;-67
2023/07/07 04:53:00;;;;;;;1.60;1.10;;;;;;;17.44;89.56;101391.09;4978075;28;20593;-67
2023/07/07 04:55:25;;;;;;;2.25;0.95;;;;;;;17.41;89.68;101408.22;4966832;28;20121;-67
2023/07/07 04:57:50;;;;;;;0.88;0.82;;;;;;;17.42;90.14;101398.84;4974420;28;20034;-67
2023/07/07 05:00:17;;;;;;;1.38;0.95;;;;;;;17.50;89.76;101405.94;4957815;28;20547;-69
2023/07/07 05:02:43;;;;;;;1.67;1.00;;;;;;;17.68;89.26;101398.63;4961826;28;20046;-68
2023/07/07 05:05:28;;;;;;;1.15;0.70;;;;;;;17.70;88.51;101409.13;4970639;28;20051;-68
2023/07/07 05:07:54;;;;;;;4.65;1.08;;;;;;;17.83;87.92;101408.41;4865943;29;20088;-67
2023/07/07 05:10:19;;;;;;;2.28;1.38;;;;;;;17.93;87.21;101402.19;4875758;29;20057;-67
2023/07/07 05:12:45;;;;;;;1.45;1.02;;;;;;;17.99;86.39;101406.09;4880279;29;20096;-67
2023/07/07 05:15:10;;;;;;;4.57;1.38;;;;;;;18.05;85.52;101411.97;4861992;29;20044;-68
2023/07/07 05:17:36;;;;;;;5.40;1.23;;;;;;;18.15;85.07;101410.41;4883122;29;20573;-68
2023/07/07 05:20:01;;;;;;;1.58;1.05;;;;;;;18.80;83.43;101413.56;4877584;29;20040;-68
2023/07/07 05:22:27;;;;;;;1.25;1.13;;;;;;;19.52;80.97;101408.38;4872722;29;20033;-67
2023/07/07 05:24:52;;;;;;;1.40;1.13;;;;;;;19.94;78.78;101412.06;4878151;29;20492;-67
2023/07/07 05:27:17;;;;;;;1.83;1.10;;;;;;;20.08;74.16;101422.91;4874151;29;20118;-69
2023/07/07 05:29:43;;;;;;;1.42;1.13;;;;;;;20.61;72.99;101417.88;4862440;29;20089;-68
2023/07/07 05:32:08;;;;;;;1.00;0.82;;;;;;;20.85;71.48;101425.06;4877694;29;20123;-67
2023/07/07 05:34:34;;;;;;;1.10;1.00;;;;;;;20.82;69.97;101414.94;4869096;29;20041;-66
2023/07/07 05:36:59;;;;;;;1.52;1.08;;;;;;;21.17;71.53;101422.06;4871339;29;20505;-66
2023/07/07 05:39:25;;;;;;;3.25;1.08;;;;;;;21.14;69.30;101420.91;4875723;29;20045;-66
2023/07/07 05:41:50;;;;;;;0.95;0.73;;;;;;;21.38;69.08;101433.56;4875208;29;20029;-68
2023/07/07 05:44:16;;;;;;;1.60;0.77;;;;;;;21.55;68.26;101427.09;4890433;28;20549;-68
2023/07/07 05:46:41;;;;;;;1.08;0.90;;;;;;;21.70;67.40;101426.94;4964150;28;20062;-67
2023/07/07 05:49:06;;;;;;;1.05;0.75;;;;;;;21.73;66.97;101426.09;4955086;28;20395;-66
2023/07/07 05:51:32;;;;;;;4.05;0.73;;;;;;;21.53;66.68;101426.72;4971088;28;20042;-67
2023/07/07 05:53:57;;;;;;;0.90;0.80;;;;;;;21.38;66.36;101419.88;4971754;28;20046;-66
2023/07/07 05:56:24;;;;;;;1.50;1.10;;;;;;;21.43;67.78;101424.09;4950703;28;20518;-67
2023/07/07 05:58:50;;;;;;;0.93;0.68;;;;;;;21.74;67.43;101425.66;4967844;28;20081;-67
2023/07/07 06:01:16;;;;;;;1.75;0.90;;;;;;;21.81;66.99;101424.84;4964301;28;20046;-67
2023/07/07 06:03:43;;;;;;;1.00;0.80;;;;;;;22.22;64.57;101433.69;4951215;28;20056;-67
2023/07/07 06:06:28;;;;;;;1.58;0.82;;;;;;;22.18;63.85;101441.94;4961509;28;20579;-67
2023/07/07 06:08:54;;;;;;;0.88;0.70;;;;;;;22.26;64.02;101442.63;4893819;29;20059;-67
2023/07/07 06:11:19;;;;;;;1.05;0.90;;;;;;;22.39;66.38;101435.38;4902766;29;20452;-69
2023/07/07 06:13:45;;;;;;;0.80;0.60;;;;;;;22.25;65.47;101444.59;4919316;29;20056;-68
2023/07/07 06:16:11;;;;;;;1.00;0.90;;;;;;;22.47;62.28;101441.53;4899265;29;20052;-69
2023/07/07 06:18:37;;;;;;;1.13;0.80;;;;;;;22.54;64.06;101439.44;4909376;29;20806;-69
2023/07/07 06:21:03;;;;;;;1.38;0.85;;;;;;;22.36;62.99;101441.69;4909498;29;20059;-69
2023/07/07 06:23:29;;;;;;;1.05;0.95;;;;;;;22.23;62.47;101448.94;4908277;29;20044;-69
2023/07/07 06:25:54;;;;;;;1.08;0.80;;;;;;;21.92;62.79;101447.41;4915317;29;20052;-69
2023/07/07 06:28:20;;;;;;;0.63;0.60;;;;;;;21.92;64.09;101447.41;4900096;29;20112;-69
2023/07/07 06:30:50;;;;;;;0.90;0.60;;;;;;;22.01;64.40;101434.75;4913405;29;20043;-69
2023/07/07 06:33:16;;;;;;;0.80;0.60;;;;;;;22.33;63.33;101442.53;4911011;29;20082;-69
2023/07/07 06:35:43;;;;;;;1.27;0.68;;;;;;;22.14;64.37;101443.97;4898304;29;20036;-69
2023/07/07 06:38:08;;;;;;;2.20;0.80;;;;;;;22.35;65.73;101453.88;4898083;29;20048;-67
2023/07/07 06:40:34;;;;;;;1.02;0.55;;;;;;;22.37;67.05;101451.47;4920226;29;20048;-67
2023/07/07 06:43:01;;;;;;;2.83;0.77;;;;;;;22.00;65.29;101438.69;4910320;29;20051;-69
2023/07/07 06:45:28;;;;;;;2.78;1.48;;;;;;;22.01;65.91;101447.72;4905662;28;20133;-68
2023/07/07 06:47:54;;;;;;;1.08;0.68;;;;;;;22.40;67.23;101464.38;4963743;28;20109;-70
2023/07/07 06:50:41;;;;;;;1.02;0.80;;;;;;;22.84;65.24;101464.06;4976823;28;20066;-70
2023/07/07 06:53:07;;;;;;;1.08;0.52;;;;;;;23.13;65.11;101467.88;4978441;28;20471;-69
2023/07/07 06:55:32;;;;;;;0.60;0.60;;;;;;;22.75;61.75;101457.56;4963846;28;20464;-69
2023/07/07 06:57:58;;;;;;;1.75;1.00;;;;;;;22.78;65.48;101454.00;4960608;28;20034;-68
2023/07/07 07:00:23;;;;;;;0.95;0.70;;;;;;;22.97;62.91;101459.53;4980590;28;20530;-70
2023/07/07 07:02:49;;;;;;;1.33;1.10;;;;;;;22.62;62.41;101465.63;4957450;28;20042;-69
2023/07/07 07:05:15;;;;;;;2.22;0.98;;;;;;;22.98;65.12;101466.59;4964567;28;20031;-68
2023/07/07 07:07:40;;;;;;;1.73;0.70;;;;;;;22.79;60.79;101459.06;4963933;28;20039;-67
2023/07/07 07:10:06;;;;;;;0.70;0.70;;;;;;;23.16;60.86;101458.81;4963516;28;20031;-69
2023/07/07 07:12:32;;;;;;;1.02;0.55;;;;;;;23.50;61.17;101466.06;4983799;28;20046;-69
2023/07/07 07:14:57;;;;;;;1.67;0.70;;;;;;;23.31;61.02;101462.09;4973179;28;20015;-69
2023/07/07 07:17:24;;;;;;;0.45;0.45;;;;;;;23.71;62.31;101466.38;4988987;28;20042;-67
2023/07/07 07:19:50;;;;;;;2.35;0.63;;;;;;;23.92;60.54;101465.19;4979104;28;20085;-67
2023/07/07 07:22:16;;;;;;;0.60;0.60;;;;;;;24.09;58.06;101469.53;4986441;28;20034;-69
2023/07/07 07:24:42;;;;;;;1.15;0.68;;;;;;;23.54;58.63;101477.78;4963143;28;20033;-69
2023/07/07 07:27:27;;;;;;;0.90;0.57;;;;;;;23.57;60.99;101463.16;4966271;28;20041;-68
2023/07/07 07:29:53;;;;;;;0.50;0.50;;;;;;;23.68;59.81;101469.22;4917339;29;20063;-67
2023/07/07 07:32:18;;;;;;;0.50;0.47;;;;;;;23.69;59.76;101466.03;4895454;29;20044;-69
2023/07/07 07:34:44;;;;;;;0.70;0.70;;;;;;;24.25;60.74;101469.59;4918941;29;20050;-70
2023/07/07 07:37:10;;;;;;;1.20;0.68;;;;;;;24.68;60.00;101464.59;4905889;29;20036;-67
2023/07/07 07:39:36;;;;;;;1.58;0.70;;;;;;;24.49;57.14;101465.47;4915079;29;20036;-67
2023/07/07 07:42:02;;;;;;;0.75;0.75;;;;;;;24.97;57.81;101470.22;4894008;29;20062;-68
2023/07/07 07:44:28;;;;;;;0.80;0.77;;;;;;;25.29;56.61;101483.16;4913574;29;20052;-70
2023/07/07 07:46:56;;;;;;;1.75;0.73;;;;;;;25.27;56.84;101472.56;4913255;29;20048;-69
2023/07/07 07:49:23;;;;;;;0.73;0.50;;;;;;;25.57;56.87;101474.13;4911940;29;20402;-68
2023/07/07 07:51:49;;;;;;;1.33;0.82;;;;;;;25.58;57.38;101483.94;4910331;29;20051;-69
2023/07/07 07:54:18;;;;;;;2.13;0.77;;;;;;;25.35;53.11;101484.19;4904083;29;20040;-69
2023/07/07 07:56:45;;;;;;;1.15;1.05;;;;;;;25.60;55.74;101481.53;4911147;29;20816;-69
2023/07/07 07:59:10;;;;;;;0.98;0.68;;;;;;;25.87;57.22;101479.94;4912636;29;20417;-69
2023/07/07 08:01:36;;;;;;;2.45;0.80;;;;;;;25.80;53.41;101482.16;4909208;29;20044;-68
2023/07/07 08:04:03;;;;;;;0.70;0.65;;;;;;;25.96;54.00;101482.03;4911163;29;20506;-69
2023/07/07 08:06:29;;;;;;;1.17;0.88;;;;;;;26.34;53.81;101490.41;4932907;28;20042;-69
2023/07/07 08:08:55;;;;;;;1.55;0.90;;;;;;;26.63;53.12;101489.06;4971683;28;20026;-70
2023/07/07 08:11:46;;;;;;;0.85;0.52;;;;;;;26.57;52.36;101496.38;4960760;28;20451;-68
2023/07/07 08:14:17;;;;;;;0.85;0.50;;;;;;;26.63;51.10;101502.09;4971699;28;20049;-70
2023/07/07 08:16:44;;;;;;;1.20;0.70;;;;;;;26.77;50.85;101496.16;4971934;28;20030;-68
2023/07/07 08:19:09;;;;;;;1.35;0.90;;;;;;;26.89;51.07;101489.03;4971514;28;20082;-68
2023/07/07 08:21:35;;;;;;;1.52;0.93;;;;;;;27.20;51.01;101499.00;4958434;28;20039;-67
2023/07/07 08:24:01;;;;;;;0.73;0.60;;;;;;;27.54;50.23;101489.94;4971322;28;20027;-68
2023/07/07 08:26:26;;;;;;;0.98;0.60;;;;;;;27.70;50.46;101497.25;4961553;28;20106;-69
2023/07/07 08:28:52;;;;;;;0.75;0.73;;;;;;;27.34;47.26;101495.78;4971560;28;20037;-69
2023/07/07 08:31:18;;;;;;;1.42;0.60;;;;;;;27.38;50.41;101493.66;4972126;28;20406;-69
2023/07/07 08:33:46;;;;;;;1.33;0.70;;;;;;;27.22;49.17;101491.03;4970470;28;20030;-69
2023/07/07 08:36:11;;;;;;;0.85;0.70;;;;;;;27.60;50.64;101485.34;4954715;28;20039;-69
2023/07/07 08:38:37;;;;;;;1.40;0.60;;;;;;;27.93;49.10;101496.78;4970775;28;20031;-69
2023/07/07 08:41:02;;;;;;;0.60;0.60;;;;;;;27.86;47.65;101495.03;4968071;28;20031;-68
2023/07/07 08:43:31;;;;;;;1.20;0.70;;;;;;;28.09;47.36;101483.50;4959822;28;20523;-69
2023/07/07 08:46:04;;;;;;;0.90;0.57;;;;;;;28.18;46.94;101493.88;4967858;28;20407;-67
2023/07/07 08:48:54;;;;;;;0.88;0.77;;;;;;;28.39;46.24;101495.78;4968702;28;20589;-67
2023/07/07 08:51:25;;;;;;;0.55;0.50;;;;;;;28.61;47.26;101499.25;4955024;28;20043;-67
2023/07/07 08:54:11;;;;;;;0.68;0.43;;;;;;;28.71;46.62;101495.28;4966118;28;20392;-67
2023/07/07 08:57:12;;;;;;;0.68;0.60;;;;;;;28.25;45.48;101494.34;4961308;28;20046;-67
2023/07/07 08:59:56;;;;;;;3.90;0.75;;;;;;;27.75;48.37;101500.22;4970413;28;20038;-68
2023/07/07 09:02:45;;;;;;;0.60;0.60;;;;;;;28.32;48.91;101499.59;4976265;28;20532;-67
2023/07/07 09:05:24;;;;;;;0.70;0.70;;;;;;;28.73;47.21;101505.91;4969214;28;20046;-67
2023/07/07 09:08:08;;;;;;;1.02;0.80;;;;;;;28.91;43.55;101511.50;4967867;28;20039;-67
2023/07/07 09:10:55;;;;;;;2.95;0.70;;;;;;;29.26;43.94;101510.03;4981236;28;20053;-67
2023/07/07 09:13:28;;;;;;;2.58;0.60;;;;;;;29.47;44.26;101511.09;4965514;28;20041;-67
2023/07/07 09:15:56;;;;;;;1.60;0.80;;;;;;;29.25;43.80;101514.03;4974935;28;20038;-67
2023/07/07 09:18:30;;;;;;;1.17;0.70;;;;;;;29.50;44.26;101512.97;4973533;28;20038;-67
2023/07/07 09:21:00;;;;;;;1.02;0.43;;;;;;;29.56;41.84;101506.31;4974661;28;20435;-67
2023/07/07 09:23:31;;;;;;;2.65;1.05;;;;;;;28.79;40.24;101515.19;4956653;28;20407;-68
2023/07/07 09:25:58;;;;;;;0.90;0.50;;;;;;;28.91;40.29;101506.75;4956592;28;20466;-67
2023/07/07 09:28:29;;;;;;;0.93;0.45;;;;;;;28.88;41.85;101513.19;4974264;28;20061;-67
2023/07/07 09:31:30;;;;;;;0.50;0.40;;;;;;;29.46;41.91;101512.34;4968148;28;20039;-67
2023/07/07 09:33:59;;;;;;;0.70;0.50;;;;;;;28.90;41.00;101512.75;4946348;28;20660;-67
2023/07/07 09:36:35;;;;;;;0.88;0.55;;;;;;;29.14;43.54;101514.50;4965975;28;20632;-67
2023/07/07 09:39:01;;;;;;;0.85;0.50;;;;;;;29.68;42.57;101508.16;4967378;28;20531;-67
2023/07/07 09:41:57;;;;;;;1.70;0.55;;;;;;;30.04;42.43;101512.91;4968772;28;20037;-67
2023/07/07 09:44:44;;;;;;;0.63;0.40;;;;;;;30.39;40.98;101504.91;4935475;28;20047;-67
2023/07/07 09:47:20;;;;;;;1.10;0.40;;;;;;;30.80;39.98;101515.19;4968253;28;20577;-68
2023/07/07 09:50:18;;;;;;;0.75;0.40;;;;;;;31.13;40.07;101513.13;4959884;28;20137;-67
2023/07/07 09:52:48;;;;;;;1.50;0.88;;;;;;;31.27;40.56;101515.19;4961081;28;20049;-67
2023/07/07 09:55:30;;;;;;;0.70;0.67;;;;;;;31.21;39.36;101503.16;4971669;28;20035;-68
2023/07/07 09:57:59;;;;;;;0.77;0.75;;;;;;;31.12;39.50;101500.47;4968963;28;20399;-68
2023/07/07 10:00:28;;;;;;;0.82;0.52;;;;;;;31.33;40.46;101504.91;4976384;28;20030;-67
2023/07/07 10:02:54;;;;;;;0.60;0.55;;;;;;;31.43;38.97;101503.63;4972603;28;20528;-67
2023/07/07 10:05:29;;;;;;;1.92;0.32;;;;;;;31.60;38.51;101499.13;4970039;28;20265;-68
2023/07/07 10:07:56;;;;;;;0.60;0.50;;;;;;;31.29;38.79;101493.19;4950158;28;20046;-67
2023/07/07 10:10:21;;;;;;;0.90;0.60;;;;;;;31.73;38.47;101507.97;4973345;28;20057;-67
2023/07/07 10:12:47;;;;;;;2.35;0.47;;;;;;;31.75;36.30;101507.47;4971309;28;20495;-69
2023/07/07 10:15:37;;;;;;;0.60;0.40;;;;;;;30.94;37.16;101506.16;4972634;28;20037;-70
2023/07/07 10:18:15;;;;;;;1.08;0.65;;;;;;;31.41;38.72;101500.56;4971383;28;20399;-66
2023/07/07 10:20:41;;;;;;;0.40;0.30;;;;;;;31.46;39.41;101508.22;4966002;28;20384;-68
2023/07/07 10:23:14;;;;;;;1.63;0.43;;;;;;;31.92;39.62;101512.13;4964269;28;20038;-67
2023/07/07 10:25:41;;;;;;;0.60;0.50;;;;;;;32.38;38.25;101508.78;4972776;28;20027;-66
2023/07/07 10:28:11;;;;;;;1.48;0.47;;;;;;;32.43;37.31;101505.31;4974119;28;20046;-66
2023/07/07 10:30:38;;;;;;;0.80;0.40;;;;;;;32.29;37.32;101506.88;4970385;28;20138;-66
2023/07/07 10:33:04;;;;;;;0.70;0.40;;;;;;;32.43;37.25;101503.28;4963316;28;20033;-66
2023/07/07 10:35:31;;;;;;;0.30;0.30;;;;;;;32.52;37.19;101502.44;4972990;28;20474;-68
2023/07/07 10:38:03;;;;;;;1.08;0.47;;;;;;;32.62;36.76;101504.59;4956464;28;20086;-68
2023/07/07 10:40:29;;;;;;;0.73;0.60;;;;;;;32.57;36.32;101504.53;4961300;28;20046;-66
2023/07/07 10:42:56;;;;;;;1.95;0.40;;;;;;;32.71;37.40;101492.56;4952987;28;20480;-66
2023/07/07 10:45:22;;;;;;;1.50;0.50;;;;;;;32.85;37.34;101497.28;4957658;28;20039;-67
2023/07/07 10:48:08;;;;;;;0.25;0.20;;;;;;;33.04;34.66;101497.81;4948736;28;20027;-66
2023/07/07 10:50:43;;;;;;;0.47;0.25;;;;;;;33.14;36.19;101491.56;4895877;29;20044;-67
2023/07/07 10:53:27;;;;;;;0.35;0.22;;;;;;;33.34;35.83;101499.94;4877707;29;20045;-67
2023/07/07 10:56:26;;;;;;;0.50;0.30;;;;;;;33.44;35.89;101494.94;4897562;29;20557;-68
2023/07/07 10:59:10;;;;;;;0.65;0.40;;;;;;;33.34;34.94;101497.13;4877916;29;20521;-67
2023/07/07 11:01:57;;;;;;;0.77;0.35;;;;;;;33.44;35.67;101494.94;4892021;29;20178;-67
2023/07/07 11:04:23;;;;;;;0.50;0.43;;;;;;;33.40;34.77;101494.41;4897178;29;20036;-66
2023/07/07 11:06:59;;;;;;;0.63;0.57;;;;;;;33.35;33.85;101498.66;4868344;29;20528;-67
2023/07/07 11:09:46;;;;;;;0.30;0.30;;;;;;;33.46;34.29;101492.44;4893619;29;20052;-66
2023/07/07 11:12:29;;;;;;;2.15;0.63;;;;;;;32.99;33.64;101485.31;4882343;29;20502;-66
2023/07/07 11:14:59;;;;;;;0.52;0.40;;;;;;;33.22;35.58;101503.84;4893835;29;20044;-67
2023/07/07 11:17:51;;;;;;;0.88;0.45;;;;;;;33.42;36.02;101497.47;4896124;29;20505;-66
2023/07/07 11:20:53;;;;;;;1.90;0.40;;;;;;;33.20;33.30;101500.78;4886263;29;20426;-66
2023/07/07 11:23:27;;;;;;;0.88;0.50;;;;;;;33.06;34.67;101501.66;4892631;29;20032;-66
2023/07/07 11:26:27;;;;;;;1.52;0.35;;;;;;;33.59;35.25;101504.78;4885420;29;20383;-68
2023/07/07 11:29:30;;;;;;;2.00;0.45;;;;;;;33.63;32.84;101504.56;4971574;28;20035;-66
2023/07/07 11:32:10;;;;;;;0.40;0.35;;;;;;;33.77;33.67;101495.28;4971065;28;20039;-67
2023/07/07 11:34:36;;;;;;;;;;;;;;;33.86;33.67;101503.50;4972596;28;20049;-66
2023/07/07 11:37:23;;;;;;;1.30;0.60;;;;;;;34.00;34.09;101493.47;4970608;28;19913;-68
2023/07/07 11:40:33;;;;;;;1.75;0.30;;;;;;;33.90;32.90;101487.25;4955165;28;20178;-66